Time;durP1;ratioP1;P1;durP2;ratioP2;P2;SDS_P1;SDS_P2;PMS_P1;PMS_P2;Temp;Humidity;BMP_temperature;BMP_pressure;BME280_temperature;BME280_humidity;BME280_pressure;Samples;Min_cycle;Max_cycle;Signal;HPM_P1;HPM_P2
2023/12/17 01:32:07;;;;;;;5.43;2.57;;;;;;;5.32;72.92;101210.63;4972294;28;20211;-93
2023/12/17 01:35:11;;;;;;;5.87;2.83;;;;;;;5.32;72.58;101211.47;5053812;28;20300;-94
2023/12/17 01:37:39;;;;;;;5.00;2.03;;;;;;;5.25;72.79;101203.66;5037553;28;20199;-92
2023/12/17 01:40:06;;;;;;;5.10;2.57;;;;;;;5.26;73.45;101202.81;5036894;28;20631;-91
2023/12/17 01:42:34;;;;;;;5.13;2.43;;;;;;;5.25;73.26;101204.53;5037776;28;20283;-91
2023/12/17 01:45:05;;;;;;;6.20;2.80;;;;;;;5.28;72.99;101198.47;5036551;28;20177;-92
2023/12/17 01:47:31;;;;;;;6.30;2.80;;;;;;;5.36;73.07;101197.63;5036469;28;20197;-92
2023/12/17 01:49:56;;;;;;;9.93;3.27;;;;;;;5.41;73.06;101195.03;5036327;28;20193;-91
2023/12/17 01:52:23;;;;;;;5.87;2.50;;;;;;;5.42;72.63;101205.41;5036275;28;20188;-90
2023/12/17 01:54:49;;;;;;;4.20;2.43;;;;;;;5.44;72.36;101201.13;5036219;28;20208;-91
2023/12/17 01:57:15;;;;;;;6.20;2.93;;;;;;;5.43;72.44;101198.50;5036103;28;20185;-90
2023/12/17 01:59:41;;;;;;;6.43;2.93;;;;;;;5.44;71.99;101205.44;5036547;28;20190;-90
2023/12/17 02:02:10;;;;;;;10.27;3.90;;;;;;;5.40;72.27;101199.34;5036981;28;20200;-90
2023/12/17 02:04:36;;;;;;;7.10;3.03;;;;;;;5.32;72.39;101206.28;5053354;28;20510;-90
2023/12/17 02:07:02;;;;;;;10.53;4.30;;;;;;;5.30;72.24;101201.94;5053508;28;20188;-90
2023/12/17 02:09:28;;;;;;;6.87;3.00;;;;;;;5.15;72.58;101199.31;5053749;28;20177;-90
2023/12/17 02:11:53;;;;;;;10.70;3.90;;;;;;;5.19;72.85;101199.31;5031519;28;20702;-89
2023/12/17 02:14:19;;;;;;;5.30;2.53;;;;;;;5.20;72.78;101202.78;5015681;28;20205;-90
2023/12/17 02:16:45;;;;;;;7.90;3.73;;;;;;;5.14;72.35;101201.03;5015889;28;20184;-90
2023/12/17 02:19:10;;;;;;;5.37;3.07;;;;;;;5.16;73.10;101191.53;5033688;28;20205;-89
2023/12/17 02:21:36;;;;;;;6.13;2.97;;;;;;;5.11;73.06;101193.25;5033440;28;20217;-90
2023/12/17 02:24:02;;;;;;;7.00;3.33;;;;;;;5.17;73.19;101190.66;5032636;28;20641;-89
2023/12/17 02:26:27;;;;;;;7.73;4.07;;;;;;;5.22;72.56;101199.34;5032707;28;20181;-89
2023/12/17 02:28:53;;;;;;;8.03;3.13;;;;;;;5.25;72.39;101196.75;5015607;28;20329;-89
2023/12/17 02:31:18;;;;;;;7.83;3.13;;;;;;;5.23;72.40;101201.09;5015723;28;20186;-89
2023/12/17 02:33:46;;;;;;;7.33;3.70;;;;;;;5.09;73.00;101205.38;5032859;28;20669;-89
2023/12/17 02:36:11;;;;;;;6.87;3.57;;;;;;;5.04;73.01;101204.50;5033095;28;20174;-88
2023/12/17 02:38:37;;;;;;;10.00;4.00;;;;;;;5.08;72.98;101198.47;5033037;28;20247;-89
2023/12/17 02:41:03;;;;;;;7.87;3.93;;;;;;;5.04;73.64;101194.09;5015534;28;20216;-88
2023/12/17 02:43:28;;;;;;;12.87;3.90;;;;;;;4.98;73.72;101199.25;5032773;28;20182;-88
2023/12/17 02:45:54;;;;;;;11.93;4.90;;;;;;;5.05;73.87;101195.84;5014998;28;20677;-88
2023/12/17 02:48:19;;;;;;;10.97;5.17;;;;;;;5.03;73.37;101192.38;5032910;28;20209;-88
2023/12/17 02:50:45;;;;;;;11.57;4.80;;;;;;;5.04;73.49;101191.50;5015198;28;20248;-88
2023/12/17 02:53:11;;;;;;;8.50;4.20;;;;;;;5.07;73.19;101193.25;5015249;28;20226;-88
2023/12/17 02:55:36;;;;;;;13.03;4.10;;;;;;;5.09;73.76;101194.09;5015220;28;20178;-88
2023/12/17 02:58:05;;;;;;;7.60;4.50;;;;;;;5.08;73.16;101195.84;5033017;28;20569;-87
2023/12/17 03:00:31;;;;;;;9.80;4.80;;;;;;;5.07;73.08;101196.72;5015507;28;20190;-88
2023/12/17 03:02:57;;;;;;;11.50;4.97;;;;;;;5.05;73.22;101201.03;5032580;28;20328;-87
2023/12/17 03:05:23;;;;;;;11.73;5.33;;;;;;;5.00;73.11;101201.88;5032721;28;20182;-88
2023/12/17 03:07:48;;;;;;;10.40;4.67;;;;;;;5.00;73.54;101202.75;5032629;28;20194;-87
2023/12/17 03:10:14;;;;;;;9.23;4.93;;;;;;;5.00;73.60;101207.09;5032710;28;20625;-87
2023/12/17 03:12:39;;;;;;;11.30;5.00;;;;;;;5.06;73.63;101212.31;5032547;28;20265;-87
2023/12/17 03:15:05;;;;;;;10.40;4.57;;;;;;;5.04;73.33;101207.09;5032776;28;20206;-87
2023/12/17 03:17:31;;;;;;;12.17;6.07;;;;;;;5.05;73.36;101207.97;5032461;28;20378;-87
2023/12/17 03:19:57;;;;;;;15.47;4.60;;;;;;;5.11;72.52;101215.78;5032601;28;20696;-88
2023/12/17 03:22:22;;;;;;;12.27;5.17;;;;;;;5.00;73.38;101218.34;5015307;28;20189;-87
2023/12/17 03:24:48;;;;;;;10.50;5.57;;;;;;;5.00;73.27;101210.56;5015339;28;20270;-87
2023/12/17 03:27:14;;;;;;;11.30;4.50;;;;;;;5.01;72.96;101216.59;5014891;28;20281;-87
2023/12/17 03:29:39;;;;;;;12.43;4.87;;;;;;;4.86;73.47;101218.31;5014777;28;20210;-87
2023/12/17 03:32:05;;;;;;;11.43;5.40;;;;;;;4.92;73.80;101227.84;5032494;28;20210;-87
2023/12/17 03:34:31;;;;;;;12.50;5.10;;;;;;;4.88;73.87;101224.38;5032420;28;20198;-87
2023/12/17 03:36:56;;;;;;;14.10;6.60;;;;;;;4.82;73.54;101224.34;5035404;28;20617;-87
2023/12/17 03:39:22;;;;;;;13.13;6.63;;;;;;;4.80;74.24;101226.06;5036417;28;20236;-87
2023/12/17 03:41:47;;;;;;;18.40;9.37;;;;;;;4.85;73.72;101228.66;5036727;28;20572;-87
2023/12/17 03:44:13;;;;;;;13.83;7.23;;;;;;;4.88;73.54;101223.50;5018419;28;20180;-86
2023/12/17 03:46:39;;;;;;;14.13;6.30;;;;;;;4.90;73.03;101232.19;5036248;28;20178;-87
2023/12/17 03:49:04;;;;;;;15.07;5.27;;;;;;;4.78;73.68;101227.78;5018451;28;20179;-86
2023/12/17 03:51:30;;;;;;;13.00;5.83;;;;;;;4.81;73.51;101217.41;5035885;28;20191;-87
2023/12/17 03:53:55;;;;;;;11.97;5.80;;;;;;;4.84;72.94;101224.34;5018320;28;20198;-86
2023/12/17 03:56:23;;;;;;;10.73;5.43;;;;;;;4.86;73.16;101222.63;5018329;28;20186;-86
2023/12/17 03:58:48;;;;;;;10.83;4.93;;;;;;;4.90;73.35;101222.63;5035448;28;20237;-87
2023/12/17 04:01:14;;;;;;;11.27;6.07;;;;;;;4.96;72.63;101220.06;5018557;28;20284;-87
2023/12/17 04:03:40;;;;;;;11.33;4.97;;;;;;;4.98;72.62;101228.72;5035527;28;20194;-86
2023/12/17 04:06:07;;;;;;;14.23;6.27;;;;;;;5.00;72.53;101228.75;5018097;28;20764;-86
2023/12/17 04:08:33;;;;;;;10.70;5.80;;;;;;;4.92;72.14;101227.84;5036098;28;20182;-87
2023/12/17 04:10:59;;;;;;;14.60;8.23;;;;;;;4.82;72.66;101228.69;5018269;28;20621;-86
2023/12/17 04:13:25;;;;;;;16.57;8.67;;;;;;;4.75;73.08;101232.09;5017982;28;20206;-86
2023/12/17 04:15:50;;;;;;;11.13;6.27;;;;;;;4.71;72.94;101232.97;5035443;28;20262;-86
2023/12/17 04:18:16;;;;;;;10.03;4.70;;;;;;;4.69;73.32;101226.91;5035888;28;20257;-86
2023/12/17 04:20:42;;;;;;;11.50;5.23;;;;;;;4.62;73.26;101230.31;5017917;28;20214;-86
2023/12/17 04:23:07;;;;;;;11.57;5.97;;;;;;;4.51;73.56;101234.59;5017831;28;20186;-86
2023/12/17 04:25:33;;;;;;;13.63;5.63;;;;;;;4.51;73.26;101232.00;5035024;28;20198;-86
2023/12/17 04:27:59;;;;;;;15.37;7.97;;;;;;;4.55;73.83;101234.63;5017737;28;20203;-85
2023/12/17 04:30:25;;;;;;;14.03;6.73;;;;;;;4.56;73.04;101238.09;5017268;28;20228;-85
2023/12/17 04:32:50;;;;;;;13.30;7.37;;;;;;;4.55;73.26;101238.94;5035400;28;20610;-86
2023/12/17 04:35:16;;;;;;;16.27;6.93;;;;;;;4.48;73.43;101244.97;5017421;28;20584;-86
2023/12/17 04:37:42;;;;;;;13.30;5.60;;;;;;;4.40;73.46;101250.13;5017538;28;20193;-85
2023/12/17 04:40:08;;;;;;;15.87;7.37;;;;;;;4.54;73.36;101248.44;5017365;28;20221;-85
2023/12/17 04:42:34;;;;;;;17.70;6.47;;;;;;;4.67;72.89;101244.19;5035185;28;20170;-85
2023/12/17 04:44:59;;;;;;;16.57;7.13;;;;;;;4.68;72.67;101243.34;5034638;28;20178;-85
2023/12/17 04:47:25;;;;;;;21.43;6.50;;;;;;;4.71;72.72;101248.53;5034041;28;20189;-85
2023/12/17 04:49:50;;;;;;;13.70;6.40;;;;;;;4.61;72.78;101252.81;5017049;28;20265;-85
2023/12/17 04:52:16;;;;;;;12.07;5.47;;;;;;;4.55;73.14;101255.41;5017108;28;20205;-86
2023/12/17 04:54:42;;;;;;;13.53;5.43;;;;;;;4.61;72.46;101257.16;5017348;28;20289;-86
2023/12/17 04:57:07;;;;;;;12.67;6.07;;;;;;;4.61;72.93;101251.97;5017098;28;20281;-85
2023/12/17 04:59:33;;;;;;;8.83;4.37;;;;;;;4.58;73.35;101255.41;5034715;28;20194;-85
2023/12/17 05:01:58;;;;;;;13.90;5.97;;;;;;;4.43;73.49;101265.69;5034333;28;20626;-85
2023/12/17 05:04:24;;;;;;;15.43;6.20;;;;;;;4.40;74.62;101260.50;5034432;28;20320;-85
2023/12/17 05:06:49;;;;;;;11.07;5.47;;;;;;;4.55;74.18;101259.72;5016965;28;20261;-85
2023/12/17 05:09:15;;;;;;;15.77;6.53;;;;;;;4.56;73.87;101258.88;5034576;28;20621;-85
2023/12/17 05:11:40;;;;;;;12.67;5.33;;;;;;;4.35;74.40;101256.97;5034877;28;20502;-85
2023/12/17 05:14:06;;;;;;;11.03;6.03;;;;;;;4.39;75.26;101257.88;5034733;28;20194;-85
2023/12/17 05:16:32;;;;;;;15.53;6.80;;;;;;;4.51;74.62;101252.78;5016563;28;20205;-85
2023/12/17 05:18:57;;;;;;;11.87;6.07;;;;;;;4.55;73.90;101257.13;5016608;28;20228;-85
2023/12/17 05:21:23;;;;;;;11.57;6.13;;;;;;;4.47;73.90;101266.59;5034096;28;20189;-85
2023/12/17 05:23:48;;;;;;;14.87;5.87;;;;;;;4.40;74.07;101264.81;5033966;28;20633;-85
2023/12/17 05:26:14;;;;;;;14.40;5.93;;;;;;;4.44;73.98;101261.38;5016513;28;20205;-85
2023/12/17 05:28:41;;;;;;;12.57;6.10;;;;;;;4.53;73.17;101258.84;5016545;28;20285;-85
2023/12/17 05:31:07;;;;;;;12.20;5.40;;;;;;;4.39;73.70;101255.28;5016387;28;20248;-85
2023/12/17 05:33:33;;;;;;;18.00;7.40;;;;;;;4.47;73.18;101256.19;5016593;28;20203;-84
2023/12/17 05:35:58;;;;;;;13.47;5.67;;;;;;;4.46;73.16;101265.72;5016720;28;20193;-85
2023/12/17 05:38:27;;;;;;;13.37;5.00;;;;;;;4.37;72.52;101270.00;5016222;28;20178;-85
2023/12/17 05:40:56;;;;;;;10.23;5.93;;;;;;;4.25;72.71;101266.44;5016108;28;20182;-85
2023/12/17 05:43:22;;;;;;;9.03;5.47;;;;;;;4.22;72.59;101266.41;5033733;28;20178;-86
2023/12/17 05:45:47;;;;;;;9.67;5.30;;;;;;;4.08;72.73;101269.78;5016174;28;20192;-85
2023/12/17 05:48:14;;;;;;;11.53;5.67;;;;;;;4.18;72.26;101269.00;5017191;28;20182;-85
2023/12/17 05:50:40;;;;;;;5.80;3.40;;;;;;;4.25;71.65;101266.44;5016173;28;20178;-84
2023/12/17 05:53:06;;;;;;;17.37;5.53;;;;;;;4.09;71.52;101274.97;5016650;28;20178;-84
2023/12/17 05:55:31;;;;;;;15.10;5.17;;;;;;;4.13;71.63;101276.75;5015944;28;20531;-85
2023/12/17 05:57:57;;;;;;;9.33;4.80;;;;;;;4.18;70.84;101280.25;5016455;28;20182;-85
2023/12/17 06:00:26;;;;;;;11.33;4.87;;;;;;;4.09;71.18;101285.34;5015574;28;20190;-85
2023/12/17 06:02:51;;;;;;;11.83;5.70;;;;;;;3.86;71.89;101289.50;5015919;28;20178;-85
2023/12/17 06:05:17;;;;;;;13.67;4.57;;;;;;;3.77;72.54;101288.56;5015785;28;20178;-84
2023/12/17 06:07:43;;;;;;;10.47;5.53;;;;;;;3.66;73.07;101293.63;5016587;28;20182;-84
2023/12/17 06:10:09;;;;;;;13.50;5.97;;;;;;;3.73;73.45;101298.00;5015926;28;20178;-85
2023/12/17 06:12:34;;;;;;;14.57;4.70;;;;;;;3.85;73.30;101299.88;5016114;28;20182;-85
2023/12/17 06:15:00;;;;;;;11.53;3.67;;;;;;;3.59;73.47;101303.06;5016074;28;20274;-84
2023/12/17 06:17:25;;;;;;;12.90;5.03;;;;;;;3.49;73.55;101302.94;5032785;28;20186;-84
2023/12/17 06:19:52;;;;;;;6.87;4.03;;;;;;;3.65;73.15;101304.84;5014557;28;20281;-84
2023/12/17 06:22:17;;;;;;;9.03;4.73;;;;;;;3.70;73.20;101306.63;5013678;28;20182;-84
2023/12/17 06:24:43;;;;;;;9.33;4.57;;;;;;;3.73;73.21;101305.78;5004080;28;20190;-84
2023/12/17 06:27:15;;;;;;;8.60;4.43;;;;;;;3.79;72.50;101305.00;5015125;28;20210;-84
2023/12/17 06:29:41;;;;;;;5.83;3.43;;;;;;;3.71;73.05;101303.19;5032593;28;20184;-84
2023/12/17 06:32:07;;;;;;;8.27;4.23;;;;;;;3.80;73.13;101297.22;5013325;28;20639;-84
2023/12/17 06:34:33;;;;;;;8.70;5.20;;;;;;;4.09;71.87;101310.44;5014959;28;20624;-85
2023/12/17 06:37:03;;;;;;;11.07;5.67;;;;;;;4.20;71.76;101309.69;5014776;28;20192;-84
2023/12/17 06:39:28;;;;;;;12.33;4.80;;;;;;;4.15;71.79;101321.75;5031916;28;20183;-85
2023/12/17 06:41:54;;;;;;;11.33;4.47;;;;;;;4.19;72.04;101322.66;5032255;28;20196;-84
2023/12/17 06:44:20;;;;;;;7.13;3.67;;;;;;;4.08;71.18;101322.56;5014754;28;20182;-84
2023/12/17 06:46:46;;;;;;;10.47;4.27;;;;;;;4.28;71.24;101323.59;5025561;28;20268;-84
2023/12/17 06:49:11;;;;;;;9.37;4.20;;;;;;;4.36;70.58;101310.66;5032133;28;20202;-84
2023/12/17 06:51:40;;;;;;;6.73;3.77;;;;;;;4.93;68.77;101317.94;5031925;28;20231;-84
2023/12/17 06:54:07;;;;;;;8.20;3.87;;;;;;;5.91;65.85;101330.41;5031441;28;20565;-85
2023/12/17 06:56:32;;;;;;;7.83;3.30;;;;;;;6.11;63.90;101315.69;5032183;28;20217;-85
2023/12/17 06:58:58;;;;;;;8.00;4.00;;;;;;;6.53;63.64;101313.03;5031433;28;20707;-84
2023/12/17 07:01:23;;;;;;;8.90;4.53;;;;;;;6.71;61.74;101307.78;5031378;28;20186;-84
2023/12/17 07:03:50;;;;;;;8.37;4.57;;;;;;;7.05;59.45;101312.94;5014472;28;20637;-85
2023/12/17 07:06:15;;;;;;;10.27;4.30;;;;;;;7.21;59.24;101317.19;5014624;28;20198;-85
2023/12/17 07:08:41;;;;;;;10.90;4.90;;;;;;;6.93;59.52;101315.56;5031711;28;20190;-85
2023/12/17 07:11:07;;;;;;;8.07;4.07;;;;;;;6.85;59.99;101312.09;5032451;28;20209;-84
2023/12/17 07:13:33;;;;;;;8.83;4.13;;;;;;;6.59;60.95;101310.44;5017273;28;20258;-84
2023/12/17 07:15:58;;;;;;;7.53;4.23;;;;;;;6.45;61.02;101314.78;5017748;28;20189;-84
2023/12/17 07:18:24;;;;;;;9.87;4.47;;;;;;;6.05;62.43;101318.28;5017101;28;20192;-84
2023/12/17 07:20:50;;;;;;;9.33;4.53;;;;;;;5.79;64.09;101317.38;5035523;28;20184;-85
2023/12/17 07:23:16;;;;;;;9.73;3.60;;;;;;;5.74;63.74;101329.50;5018027;28;20178;-85
2023/12/17 07:25:41;;;;;;;27.40;12.60;;;;;;;5.47;65.12;101338.97;5018029;28;20247;-84
2023/12/17 07:28:07;;;;;;;6.83;3.30;;;;;;;5.48;65.61;101330.28;5026905;28;20736;-85
2023/12/17 07:30:33;;;;;;;9.50;3.17;;;;;;;5.46;65.23;101334.63;5010067;28;20555;-84
2023/12/17 07:32:59;;;;;;;8.97;3.27;;;;;;;5.32;65.90;101327.66;5024548;28;20638;-85
2023/12/17 07:35:26;;;;;;;6.83;3.33;;;;;;;5.45;65.73;101335.47;5024327;28;20276;-85
2023/12/17 07:37:51;;;;;;;9.13;3.50;;;;;;;5.42;66.17;101332.84;5022953;28;20220;-85
2023/12/17 07:40:17;;;;;;;5.77;2.87;;;;;;;5.25;66.10;101333.69;5022065;28;20260;-85
2023/12/17 07:42:42;;;;;;;11.10;5.73;;;;;;;5.21;66.06;101338.00;5000915;28;20268;-85
2023/12/17 07:45:09;;;;;;;9.27;4.47;;;;;;;5.39;65.91;101337.22;5009636;28;20225;-86
2023/12/17 07:47:35;;;;;;;6.93;3.67;;;;;;;5.28;65.80;101336.28;5022251;28;20217;-86
2023/12/17 07:50:00;;;;;;;8.90;2.90;;;;;;;5.08;65.91;101331.03;5005706;28;20202;-85
2023/12/17 07:52:26;;;;;;;7.43;3.30;;;;;;;5.30;66.04;101326.75;4995701;28;20328;-86
2023/12/17 07:54:54;;;;;;;8.57;4.07;;;;;;;5.51;64.77;101327.69;5003578;28;20573;-88
2023/12/17 07:57:23;;;;;;;7.03;3.23;;;;;;;5.81;64.78;101326.03;5002996;28;20225;-87
2023/12/17 07:59:50;;;;;;;5.43;2.67;;;;;;;5.82;64.67;101325.16;5006860;28;20280;-88
2023/12/17 08:02:16;;;;;;;5.73;3.33;;;;;;;6.02;64.47;101320.91;4999982;28;20705;-87
2023/12/17 08:04:42;;;;;;;6.07;3.20;;;;;;;6.00;63.24;101320.88;4992034;28;20283;-87
2023/12/17 08:07:09;;;;;;;5.73;2.60;;;;;;;6.03;62.97;101320.00;5020887;28;20197;-89
2023/12/17 08:09:35;;;;;;;7.13;3.00;;;;;;;6.10;62.47;101329.56;5011759;28;20198;-89
2023/12/17 08:12:01;;;;;;;6.97;3.13;;;;;;;5.95;62.47;101324.34;4992874;28;20194;-88
2023/12/17 08:14:28;;;;;;;5.30;2.67;;;;;;;5.86;63.11;101316.53;5024110;28;20250;-87
2023/12/17 08:16:53;;;;;;;6.17;2.87;;;;;;;6.03;62.80;101317.41;5006334;28;20193;-87
2023/12/17 08:19:19;;;;;;;7.13;3.40;;;;;;;6.09;63.10;101317.41;5019573;28;20185;-88
2023/12/17 08:21:45;;;;;;;5.37;2.43;;;;;;;6.26;62.13;101310.50;5023254;28;20619;-87
2023/12/17 08:24:11;;;;;;;4.30;2.70;;;;;;;6.55;61.43;101302.63;4997276;28;20201;-88
2023/12/17 08:26:36;;;;;;;8.17;3.07;;;;;;;6.65;61.07;101310.44;4998056;28;20622;-88
2023/12/17 08:29:02;;;;;;;5.07;2.70;;;;;;;6.51;60.51;101301.75;5015730;28;20198;-88
2023/12/17 08:31:28;;;;;;;9.33;2.50;;;;;;;6.53;60.61;101305.22;5035461;28;20174;-88
2023/12/17 08:33:53;;;;;;;5.93;2.70;;;;;;;6.67;59.68;101292.19;5017926;28;20679;-88
2023/12/17 08:36:20;;;;;;;4.83;2.53;;;;;;;6.88;60.77;101297.34;5034979;28;20197;-88
2023/12/17 08:38:46;;;;;;;5.03;2.13;;;;;;;7.06;59.50;101301.59;5035047;28;20625;-88
2023/12/17 08:41:13;;;;;;;4.97;2.07;;;;;;;7.10;58.23;101292.91;5017395;28;20197;-88
2023/12/17 08:43:38;;;;;;;9.73;2.77;;;;;;;7.14;58.53;101284.19;5034682;28;20182;-88
2023/12/17 08:46:04;;;;;;;5.13;2.43;;;;;;;7.22;57.82;101285.91;5034727;28;20182;-88
2023/12/17 08:48:30;;;;;;;6.03;2.60;;;;;;;7.30;58.09;101280.66;5034852;28;20644;-89
2023/12/17 08:50:55;;;;;;;6.13;2.23;;;;;;;7.36;56.83;101280.63;5035080;28;20198;-88
2023/12/17 08:53:23;;;;;;;4.67;2.60;;;;;;;7.44;56.37;101268.41;5017002;28;20198;-88
2023/12/17 08:55:49;;;;;;;5.43;2.47;;;;;;;7.52;56.56;101271.81;5034765;28;20583;-88
2023/12/17 08:58:16;;;;;;;4.57;2.10;;;;;;;7.52;55.84;101263.13;5034502;28;20644;-89
2023/12/17 09:00:42;;;;;;;3.57;1.50;;;;;;;7.28;55.95;101261.53;5034651;28;20174;-89
2023/12/17 09:03:08;;;;;;;5.80;2.33;;;;;;;7.09;56.97;101262.50;5034559;28;20189;-88
2023/12/17 09:05:35;;;;;;;5.03;2.57;;;;;;;7.26;56.87;101252.81;5017079;28;20221;-88
2023/12/17 09:08:01;;;;;;;9.03;3.27;;;;;;;7.34;56.87;101251.03;5034076;28;20187;-88
2023/12/17 09:10:28;;;;;;;5.17;2.50;;;;;;;7.28;56.51;101240.66;5016993;28;20186;-88
2023/12/17 09:12:56;;;;;;;4.57;2.13;;;;;;;7.52;56.44;101243.09;5034558;28;20179;-88
2023/12/17 09:15:22;;;;;;;5.07;2.43;;;;;;;7.53;56.43;101231.78;5034089;28;20202;-88
2023/12/17 09:17:49;;;;;;;6.00;2.73;;;;;;;7.62;56.63;101238.69;5016854;28;20201;-88
2023/12/17 09:20:15;;;;;;;5.73;2.43;;;;;;;7.60;56.05;101233.47;5016786;28;20544;-87
2023/12/17 09:22:41;;;;;;;6.37;2.10;;;;;;;7.56;55.67;101237.00;5016697;28;20193;-88
2023/12/17 09:25:07;;;;;;;3.80;2.00;;;;;;;7.65;56.19;101225.63;5033943;28;20185;-88
2023/12/17 09:27:33;;;;;;;3.67;2.07;;;;;;;7.77;55.04;101231.63;5016580;28;20206;-86
2023/12/17 09:29:59;;;;;;;5.90;2.43;;;;;;;7.75;54.86;101225.56;5034058;28;20174;-85
2023/12/17 09:32:26;;;;;;;8.53;3.03;;;;;;;7.54;55.36;101233.53;5034033;28;20190;-85
2023/12/17 09:34:51;;;;;;;4.13;2.27;;;;;;;7.50;55.10;101229.19;5033479;28;20205;-84
2023/12/17 09:37:17;;;;;;;7.00;3.17;;;;;;;7.52;55.27;101232.66;5016508;28;20178;-84
2023/12/17 09:39:42;;;;;;;8.10;3.57;;;;;;;7.70;56.36;101234.28;5033851;28;20649;-85
2023/12/17 09:42:08;;;;;;;5.50;2.50;;;;;;;7.29;55.62;101237.16;5034385;28;20482;-84
2023/12/17 09:44:34;;;;;;;7.83;3.17;;;;;;;7.30;56.93;101233.69;5033793;28;20636;-84
2023/12/17 09:47:00;;;;;;;12.67;4.47;;;;;;;7.34;56.25;101240.59;5033604;28;20189;-84
2023/12/17 09:49:25;;;;;;;5.93;3.17;;;;;;;7.26;56.92;101232.81;5033968;28;20192;-84
2023/12/17 09:52:05;;;;;;;8.33;3.67;;;;;;;7.23;56.07;101224.16;5016193;28;20182;-83
2023/12/17 09:54:31;;;;;;;9.00;3.30;;;;;;;7.16;57.84;101238.97;5033847;28;20190;-84
2023/12/17 09:56:57;;;;;;;6.27;2.90;;;;;;;7.21;56.79;101229.38;5033366;28;20197;-84
2023/12/17 09:59:23;;;;;;;7.50;3.23;;;;;;;7.36;57.30;101223.22;5016190;28;20178;-84
2023/12/17 10:01:48;;;;;;;7.77;3.33;;;;;;;7.51;57.06;101220.50;5016112;28;20656;-84
2023/12/17 10:04:14;;;;;;;6.90;3.93;;;;;;;7.54;56.96;101217.88;5015887;28;20187;-85
2023/12/17 10:06:40;;;;;;;5.43;2.40;;;;;;;7.42;56.74;101217.94;5033591;28;20186;-85
2023/12/17 10:09:08;;;;;;;4.10;2.27;;;;;;;7.50;56.36;101215.28;5033334;28;20578;-85
2023/12/17 10:11:33;;;;;;;5.80;2.87;;;;;;;7.81;55.57;101211.56;5033206;28;20237;-86
2023/12/17 10:14:00;;;;;;;4.60;2.67;;;;;;;7.96;54.96;101206.22;5033159;28;20222;-86
2023/12/17 10:16:26;;;;;;;5.27;2.43;;;;;;;7.83;54.81;101202.88;5016182;28;20570;-86
2023/12/17 10:18:52;;;;;;;6.43;1.93;;;;;;;7.88;53.95;101210.66;5033158;28;20250;-86
2023/12/17 10:21:18;;;;;;;5.87;2.40;;;;;;;8.20;54.22;101200.75;5033470;28;20187;-85
2023/12/17 10:23:48;;;;;;;4.57;2.47;;;;;;;8.11;53.77;101211.31;5033737;28;20167;-86
2023/12/17 10:26:14;;;;;;;5.37;2.50;;;;;;;8.03;53.20;101207.88;5016088;28;20651;-86
2023/12/17 10:28:47;;;;;;;5.37;2.03;;;;;;;8.11;53.59;101206.06;5032981;28;20639;-85
2023/12/17 10:31:16;;;;;;;4.70;2.00;;;;;;;8.23;53.11;101197.28;5032796;28;20193;-85
2023/12/17 10:34:06;;;;;;;4.60;1.73;;;;;;;8.02;53.33;101196.56;5033389;28;20647;-85
2023/12/17 10:36:32;;;;;;;6.30;2.27;;;;;;;8.18;51.94;101196.41;5032116;28;20194;-86
2023/12/17 10:38:59;;;;;;;6.00;2.20;;;;;;;8.00;52.94;101194.84;5032924;28;20171;-85
2023/12/17 10:41:27;;;;;;;6.20;2.67;;;;;;;7.78;54.09;101193.34;5033025;28;20373;-86
2023/12/17 10:43:54;;;;;;;6.03;2.50;;;;;;;7.89;54.17;101194.09;5015542;28;20175;-86
2023/12/17 10:46:20;;;;;;;5.47;1.67;;;;;;;7.83;52.90;101195.03;5034669;28;20183;-86
2023/12/17 10:48:46;;;;;;;3.50;2.10;;;;;;;7.96;53.26;101196.66;5036980;28;20182;-87
2023/12/17 10:51:12;;;;;;;6.10;2.50;;;;;;;7.95;53.64;101194.91;5019138;28;20178;-87
2023/12/17 10:53:38;;;;;;;6.07;2.47;;;;;;;8.00;53.95;101187.91;5036829;28;20202;-87
2023/12/17 10:56:04;;;;;;;6.73;3.00;;;;;;;8.13;54.48;101182.53;5036725;28;20648;-87
2023/12/17 10:58:31;;;;;;;6.60;2.70;;;;;;;8.25;54.14;101187.66;5019669;28;20193;-87
2023/12/17 11:00:57;;;;;;;7.43;2.80;;;;;;;8.18;53.96;101185.97;5036568;28;20213;-86
2023/12/17 11:03:25;;;;;;;5.70;2.87;;;;;;;8.20;54.74;101179.00;5037305;28;20564;-87
2023/12/17 11:05:59;;;;;;;8.87;3.10;;;;;;;8.48;53.35;101177.84;5019580;28;20184;-87
2023/12/17 11:08:25;;;;;;;6.47;3.33;;;;;;;8.27;54.45;101175.47;5036953;28;20190;-86
2023/12/17 11:10:52;;;;;;;5.70;2.80;;;;;;;8.18;53.86;101181.63;5019199;28;20522;-87
2023/12/17 11:13:24;;;;;;;6.87;3.17;;;;;;;8.46;54.33;101185.69;5018872;28;20194;-86
2023/12/17 11:15:51;;;;;;;6.13;3.33;;;;;;;8.42;53.70;101170.06;5036922;28;20649;-86
2023/12/17 11:18:17;;;;;;;9.57;3.83;;;;;;;8.21;54.37;101170.25;5036403;28;20637;-85
2023/12/17 11:20:46;;;;;;;7.20;3.30;;;;;;;8.33;53.48;101165.81;5035890;28;20181;-86
2023/12/17 11:23:15;;;;;;;5.50;2.73;;;;;;;8.10;54.37;101164.31;5017862;28;20255;-87
2023/12/17 11:25:40;;;;;;;7.70;4.00;;;;;;;8.26;53.83;101164.13;5018802;28;20189;-88
2023/12/17 11:28:07;;;;;;;8.67;3.77;;;;;;;8.38;53.50;101163.16;5016945;28;20250;-88
2023/12/17 11:30:34;;;;;;;9.40;4.40;;;;;;;8.54;53.54;101156.88;5017185;28;20700;-89
2023/12/17 11:33:01;;;;;;;11.07;4.50;;;;;;;8.59;52.94;101147.22;5035717;28;20276;-88
2023/12/17 11:35:28;;;;;;;7.77;3.60;;;;;;;8.76;52.94;101144.38;5019203;28;20619;-88
2023/12/17 11:37:54;;;;;;;9.50;3.70;;;;;;;8.95;52.26;101146.72;5018644;28;20669;-86
2023/12/17 11:40:21;;;;;;;12.53;4.17;;;;;;;9.04;52.32;101136.13;5036044;28;20197;-86
2023/12/17 11:42:57;;;;;;;8.73;3.50;;;;;;;8.84;51.22;101130.31;5019004;28;20188;-86
2023/12/17 11:45:45;;;;;;;8.23;3.97;;;;;;;8.83;52.41;101131.19;5035862;28;20239;-86
2023/12/17 11:48:13;;;;;;;12.60;4.53;;;;;;;9.05;51.24;101116.06;5018576;28;20192;-86
2023/12/17 11:50:44;;;;;;;6.93;3.73;;;;;;;9.13;51.35;101116.81;5018912;28;20177;-87
2023/12/17 11:53:17;;;;;;;6.23;3.73;;;;;;;8.99;51.96;101117.03;5014379;28;20341;-86
2023/12/17 11:55:45;;;;;;;6.80;2.80;;;;;;;9.01;51.92;101123.13;5015737;28;20213;-86
2023/12/17 11:58:11;;;;;;;8.77;4.53;;;;;;;9.20;51.90;101121.94;5012825;28;20188;-86
2023/12/17 12:00:37;;;;;;;8.37;4.13;;;;;;;9.28;51.72;101120.06;5017734;28;20614;-86
2023/12/17 12:03:04;;;;;;;5.70;3.40;;;;;;;9.40;50.68;101115.53;5007638;28;20653;-87
2023/12/17 12:05:30;;;;;;;9.60;3.90;;;;;;;9.60;51.27;101108.19;5009901;28;20212;-87
2023/12/17 12:07:57;;;;;;;8.10;3.57;;;;;;;9.81;50.50;101105.19;5012824;28;20652;-88
2023/12/17 12:10:23;;;;;;;7.47;3.57;;;;;;;10.08;50.40;101103.81;5010258;28;20261;-88
2023/12/17 12:13:03;;;;;;;7.03;3.47;;;;;;;10.21;49.90;101105.34;5034531;28;20257;-87
2023/12/17 12:15:28;;;;;;;6.63;3.47;;;;;;;10.10;49.47;101104.66;5034737;28;20229;-88
2023/12/17 12:17:54;;;;;;;9.80;4.40;;;;;;;10.16;50.08;101097.59;5011208;28;20218;-87
2023/12/17 12:20:41;;;;;;;6.60;3.23;;;;;;;10.28;48.83;101101.69;5034418;28;20210;-88
2023/12/17 12:23:10;;;;;;;9.50;4.33;;;;;;;10.44;49.04;101098.75;5033741;28;20574;-87
2023/12/17 12:25:38;;;;;;;7.27;3.93;;;;;;;10.59;49.31;101096.69;5004019;28;20598;-86
2023/12/17 12:28:15;;;;;;;7.00;4.00;;;;;;;10.66;48.32;101106.16;5016548;28;20312;-87
2023/12/17 12:30:41;;;;;;;8.27;3.53;;;;;;;10.70;48.17;101099.94;4992247;28;20213;-86
2023/12/17 12:33:11;;;;;;;5.90;3.40;;;;;;;10.72;47.97;101098.13;5034076;28;20668;-85
2023/12/17 12:35:41;;;;;;;7.27;5.00;;;;;;;10.91;48.08;101108.22;5000740;28;20208;-86
2023/12/17 12:38:24;;;;;;;7.17;3.80;;;;;;;11.03;47.81;101100.03;4994982;28;20210;-86
2023/12/17 12:40:53;;;;;;;7.60;3.27;;;;;;;11.21;47.60;101103.16;5008487;28;20221;-86
2023/12/17 12:43:24;;;;;;;5.20;2.70;;;;;;;11.06;46.93;101102.59;5022723;28;20187;-86
2023/12/17 12:45:51;;;;;;;5.30;3.10;;;;;;;11.03;46.71;101105.28;5016260;28;20222;-87
2023/12/17 12:48:19;;;;;;;4.97;2.13;;;;;;;10.91;46.20;101102.09;5032850;28;20242;-87
2023/12/17 12:50:45;;;;;;;7.23;2.60;;;;;;;10.84;46.44;101097.88;5034545;28;20640;-87
2023/12/17 12:53:10;;;;;;;5.57;2.47;;;;;;;10.88;46.64;101095.16;5031977;28;20190;-87
2023/12/17 12:56:26;;;;;;;5.20;2.50;;;;;;;10.85;46.23;101115.34;4984677;28;20206;-88
2023/12/17 12:59:45;;;;;;;6.20;2.70;;;;;;;10.85;45.59;101096.97;5009809;28;20245;-88